KGS weather

Kos Airport
Kos Island, Dodecanese, Greece

Public forecast

Using degrees Celsius for public forecast. Weather courtesy of forecast.io.

METAR (pilot weather report)

Retrieved 2018/10/18 02:20 UTC (0 seconds ago):

LGKO 180220Z VRB02KT 9999 FEW011 18/16 Q1014

TAF (pilot weather forecast)

Forecast is more than 12 hours old.

Retrieved 2018/10/17 00:14 UTC (1 day ago):

TAF LGKO 172300Z 1800/1824 30008KT 9999 FEW015 PROB30 1803/1806 5000 BR SCT008